Time;durP1;ratioP1;P1;durP2;ratioP2;P2;SDS_P1;SDS_P2;PMS_P1;PMS_P2;Temp;Humidity;BMP_temperature;BMP_pressure;BME280_temperature;BME280_humidity;BME280_pressure;Samples;Min_cycle;Max_cycle;Signal;HPM_P1;HPM_P2
2022/03/15 00:02:35;;;;;;;66.83;31.07;;;;;;;5.90;46.43;101942.61;5047001;57;1138770;-71
2022/03/15 00:07:42;;;;;;;93.47;43.43;;;;;;;5.84;46.74;101953.28;5082756;56;1139056;-70
2022/03/15 00:12:49;;;;;;;61.60;28.23;;;;;;;5.82;46.92;101949.84;5087098;56;1138827;-70
2022/03/15 00:17:56;;;;;;;59.17;27.13;;;;;;;5.81;47.18;101947.27;5085101;56;1139044;-71
2022/03/15 00:23:01;;;;;;;60.85;27.85;;;;;;;5.68;47.57;101957.80;5085400;56;1138833;-70
2022/03/15 00:28:07;;;;;;;54.65;24.25;;;;;;;5.57;48.19;101948.53;5083807;56;1138840;-70
2022/03/15 00:33:13;;;;;;;50.37;21.77;;;;;;;5.55;48.74;101951.66;5134572;56;1138945;-70
2022/03/15 00:38:19;;;;;;;47.23;22.47;;;;;;;5.55;49.26;101954.28;5140311;55;1139058;-70
2022/03/15 00:43:25;;;;;;;48.03;22.60;;;;;;;5.58;49.45;101944.14;5140129;56;1138905;-70
2022/03/15 00:48:31;;;;;;;46.17;22.00;;;;;;;5.58;49.80;101952.88;5140456;56;1138977;-70
2022/03/15 00:53:37;;;;;;;98.07;36.03;;;;;;;5.52;50.45;101954.83;5140589;56;1139181;-70
2022/03/15 00:58:43;;;;;;;61.33;25.57;;;;;;;5.44;51.09;101957.73;5140284;56;1138914;-70
2022/03/15 01:03:48;;;;;;;56.97;26.97;;;;;;;5.36;51.95;101949.23;5066428;56;1138867;-70
2022/03/15 01:08:54;;;;;;;51.90;24.10;;;;;;;5.30;52.72;101952.08;5068758;55;1146211;-70
2022/03/15 01:14:01;;;;;;;47.50;22.10;;;;;;;5.31;53.15;101947.25;5126159;56;1138937;-70
2022/03/15 01:19:08;;;;;;;44.90;21.23;;;;;;;5.29;53.94;101947.75;5140860;56;1139006;-70
2022/03/15 01:24:14;;;;;;;50.03;21.30;;;;;;;5.30;54.54;101947.70;5140534;56;1138940;-70
2022/03/15 01:29:22;;;;;;;38.30;18.67;;;;;;;5.29;55.73;101962.17;5140848;56;1138873;-70
2022/03/15 01:34:28;;;;;;;42.47;20.53;;;;;;;5.30;56.44;101962.58;5067934;56;1138721;-71
2022/03/15 01:39:36;;;;;;;45.40;22.13;;;;;;;5.33;57.38;101971.66;5043492;56;1138882;-71
2022/03/15 01:44:49;;;;;;;44.63;21.70;;;;;;;5.33;58.52;101978.22;5028189;56;1138972;-70
2022/03/15 01:49:54;;;;;;;36.90;19.37;;;;;;;5.35;59.23;101979.00;5023811;56;1138823;-71
2022/03/15 01:55:00;;;;;;;42.25;19.32;;;;;;;5.39;60.22;101977.14;5020084;56;1138958;-70
2022/03/15 02:00:08;;;;;;;37.80;19.73;;;;;;;5.43;60.69;101965.20;4988290;57;1138871;-70
2022/03/15 02:05:14;;;;;;;34.30;18.80;;;;;;;5.51;60.56;101965.78;4972968;57;1138873;-70
2022/03/15 02:10:22;;;;;;;31.53;18.27;;;;;;;5.58;62.38;101966.45;5034523;56;1138876;-71
2022/03/15 02:15:28;;;;;;;29.93;17.23;;;;;;;5.59;63.04;101966.40;5029607;56;1139100;-70
2022/03/15 02:20:34;;;;;;;31.17;16.93;;;;;;;5.60;64.06;101964.63;5029030;56;1139033;-70
2022/03/15 02:25:41;;;;;;;28.70;16.33;;;;;;;5.57;65.88;101964.73;5029471;56;1138946;-70
2022/03/15 02:30:47;;;;;;;27.13;13.70;;;;;;;5.53;65.93;101959.17;5028766;56;1138740;-70
2022/03/15 02:35:55;;;;;;;29.44;15.82;;;;;;;5.55;67.71;101959.98;5120839;56;1138939;-71
2022/03/15 02:41:01;;;;;;;24.85;14.30;;;;;;;5.52;70.47;101959.63;5140762;56;1138918;-70
2022/03/15 02:46:07;;;;;;;26.57;14.50;;;;;;;5.50;70.75;101964.55;5139606;56;1138836;-70
2022/03/15 02:51:13;;;;;;;31.06;14.30;;;;;;;5.47;72.03;101962.02;5130792;56;1138759;-70
2022/03/15 02:56:19;;;;;;;22.53;14.17;;;;;;;5.44;71.21;101960.36;5106884;56;1138893;-71
2022/03/15 03:01:25;;;;;;;26.27;14.07;;;;;;;5.47;71.22;101969.44;5149510;55;1138749;-70
2022/03/15 03:06:32;;;;;;;41.23;16.40;;;;;;;5.49;71.83;101975.95;5118162;56;1138954;-71
2022/03/15 03:11:39;;;;;;;33.30;15.20;;;;;;;5.44;72.08;101972.16;5218179;55;1138858;-70
2022/03/15 03:16:45;;;;;;;33.87;17.13;;;;;;;5.43;72.92;101973.06;5118112;56;1138838;-72
2022/03/15 03:21:50;;;;;;;24.23;13.37;;;;;;;5.38;73.65;101979.36;5217829;55;1138990;-70
2022/03/15 03:26:56;;;;;;;25.67;13.77;;;;;;;5.38;73.63;101976.73;5117959;56;1139046;-70
2022/03/15 03:32:02;;;;;;;22.75;12.78;;;;;;;5.43;73.64;101966.96;5218159;55;1140872;-70
2022/03/15 03:37:07;;;;;;;27.07;14.53;;;;;;;5.53;73.42;101960.03;4982092;57;1140971;-70
2022/03/15 03:42:14;;;;;;;39.60;13.97;;;;;;;5.59;73.03;101953.28;4936841;58;1141021;-70
2022/03/15 03:47:20;;;;;;;19.77;13.30;;;;;;;5.57;73.58;101960.34;5040850;56;1138765;-70
2022/03/15 03:52:27;;;;;;;32.10;14.73;;;;;;;5.49;74.40;101968.08;5015393;57;1138837;-70
2022/03/15 03:57:34;;;;;;;36.00;18.20;;;;;;;5.40;74.57;101965.75;4946520;58;1138681;-70
2022/03/15 04:02:40;;;;;;;38.93;17.63;;;;;;;5.33;75.12;101969.50;4962768;57;1138642;-70
2022/03/15 04:07:46;;;;;;;32.37;18.40;;;;;;;5.25;75.21;101974.52;4864261;58;1138885;-70
2022/03/15 04:12:54;;;;;;;26.43;16.13;;;;;;;5.26;75.01;101967.06;4860027;58;1139118;-69
2022/03/15 04:18:00;;;;;;;25.48;14.00;;;;;;;5.35;75.05;101963.75;4864130;58;1138906;-70
2022/03/15 04:23:08;;;;;;;25.33;14.47;;;;;;;5.33;75.41;101970.80;4860077;59;1139141;-70
2022/03/15 04:28:14;;;;;;;25.23;14.73;;;;;;;5.27;75.74;101967.46;4864121;59;1138951;-70
2022/03/15 04:33:20;;;;;;;21.87;13.20;;;;;;;5.35;75.83;101970.30;4859382;59;1139100;-70
2022/03/15 04:38:26;;;;;;;24.53;14.83;;;;;;;5.47;75.95;101972.52;4829443;58;1140929;-70
2022/03/15 04:43:35;;;;;;;29.30;16.33;;;;;;;5.58;75.87;101972.55;4868039;58;1141101;-70
2022/03/15 04:48:42;;;;;;;26.40;16.07;;;;;;;5.64;75.84;101971.50;4943547;57;1140956;-71
2022/03/15 04:53:49;;;;;;;27.80;15.87;;;;;;;5.69;75.88;101979.20;4947402;57;1138952;-71
2022/03/15 04:58:55;;;;;;;28.00;15.67;;;;;;;5.74;75.83;101986.47;4963187;57;1138841;-72
2022/03/15 05:04:02;;;;;;;26.23;15.03;;;;;;;5.75;75.42;101989.05;4870461;57;1138916;-70
2022/03/15 05:09:09;;;;;;;25.05;14.80;;;;;;;5.55;76.07;101993.65;4902248;58;1138789;-70
2022/03/15 05:14:15;;;;;;;22.50;12.67;;;;;;;5.38;77.37;101999.03;4868786;59;1139027;-70
2022/03/15 05:19:21;;;;;;;25.60;14.28;;;;;;;5.23;79.01;101991.20;4946647;58;1138892;-71
2022/03/15 05:24:26;;;;;;;23.67;14.47;;;;;;;5.18;80.20;101991.38;4868182;59;1138905;-70
2022/03/15 05:29:32;;;;;;;19.90;13.03;;;;;;;5.15;81.24;101984.91;4946948;57;1138920;-71
2022/03/15 05:34:38;;;;;;;22.37;12.77;;;;;;;5.21;81.83;101992.56;4867904;59;1139079;-70
2022/03/15 05:39:44;;;;;;;30.47;14.60;;;;;;;5.29;84.37;101999.75;4946130;58;1139107;-70
2022/03/15 05:44:50;;;;;;;24.10;13.68;;;;;;;5.34;84.50;101989.58;4867957;59;1138857;-71
2022/03/15 05:49:56;;;;;;;18.27;12.30;;;;;;;5.42;84.86;101989.72;4946859;58;1138890;-70
2022/03/15 05:55:02;;;;;;;21.68;14.30;;;;;;;5.54;84.80;101991.07;4867812;59;1141070;-71
2022/03/15 06:00:14;;;;;;;22.42;12.37;;;;;;;5.63;84.42;101981.14;4965772;57;1138963;-70
2022/03/15 06:05:20;;;;;;;22.97;12.53;;;;;;;5.67;84.98;101983.19;5027867;56;1138831;-70
2022/03/15 06:10:27;;;;;;;24.20;14.50;;;;;;;5.70;85.30;101982.23;5027930;57;1139010;-70
2022/03/15 06:15:33;;;;;;;42.87;18.77;;;;;;;5.79;85.08;101984.56;5027547;56;1140939;-70
2022/03/15 06:20:39;;;;;;;67.77;26.37;;;;;;;5.86;85.96;101986.05;5027446;57;1140785;-70
2022/03/15 06:25:44;;;;;;;24.60;15.10;;;;;;;5.87;86.03;101993.02;5027304;57;1138901;-71
2022/03/15 06:30:50;;;;;;;23.77;13.47;;;;;;;5.89;87.90;101987.29;4978411;57;1139055;-70
2022/03/15 06:35:56;;;;;;;19.50;14.20;;;;;;;5.85;90.75;101985.19;4967553;57;1138896;-71
2022/03/15 06:41:02;;;;;;;23.07;12.87;;;;;;;5.84;89.96;101997.91;4984269;57;1148674;-70
2022/03/15 06:46:09;;;;;;;65.40;44.80;;;;;;;5.83;91.85;102004.06;4976250;58;1138855;-70
2022/03/15 06:51:15;;;;;;;52.60;27.17;;;;;;;5.87;91.09;102008.31;4975666;57;1140993;-70
2022/03/15 06:56:23;;;;;;;25.70;15.63;;;;;;;5.91;90.66;102009.97;4976253;58;1138800;-70
2022/03/15 07:01:29;;;;;;;28.63;15.90;;;;;;;5.95;91.06;102001.53;4925062;57;1141087;-70
2022/03/15 07:06:35;;;;;;;32.23;17.33;;;;;;;6.03;90.24;102007.81;4799835;59;1140941;-71
2022/03/15 07:11:41;;;;;;;53.27;27.43;;;;;;;6.14;91.58;102005.66;4846006;58;1140899;-71
2022/03/15 07:16:48;;;;;;;84.10;35.37;;;;;;;6.14;91.23;102008.28;4880261;58;1141200;-71
2022/03/15 07:21:54;;;;;;;54.90;24.03;;;;;;;6.17;92.75;102012.13;4880275;58;1141055;-71
2022/03/15 07:27:00;;;;;;;76.73;34.33;;;;;;;6.24;93.46;102007.06;4881515;58;1140909;-72
2022/03/15 07:32:08;;;;;;;48.70;24.60;;;;;;;6.28;93.15;102006.88;4881839;58;1138756;-71
2022/03/15 07:37:14;;;;;;;26.25;15.88;;;;;;;6.34;93.22;102000.11;4881407;58;1141007;-71
2022/03/15 07:42:23;;;;;;;31.57;18.73;;;;;;;6.48;93.81;102004.85;4886947;57;1141024;-71
2022/03/15 07:47:28;;;;;;;26.68;16.37;;;;;;;6.60;95.33;101999.59;4946511;57;1140848;-71
2022/03/15 07:52:34;;;;;;;59.63;27.93;;;;;;;6.65;95.66;101994.57;4946179;57;1140785;-71
2022/03/15 07:57:39;;;;;;;26.93;16.63;;;;;;;6.73;95.51;102002.15;4946501;57;1140906;-71
2022/03/15 08:02:45;;;;;;;28.50;16.10;;;;;;;6.79;95.87;102006.33;4902561;57;1140812;-71
2022/03/15 08:07:51;;;;;;;31.23;19.13;;;;;;;6.84;95.14;101999.13;4867366;58;1140877;-71
2022/03/15 08:12:57;;;;;;;25.80;16.12;;;;;;;6.88;95.37;102011.22;4938599;58;1140806;-71
2022/03/15 08:18:03;;;;;;;24.60;15.50;;;;;;;6.89;95.57;102005.05;4947209;58;1140973;-72
2022/03/15 08:23:12;;;;;;;33.75;18.20;;;;;;;6.89;98.38;102003.28;4946838;58;1141366;-72
2022/03/15 08:28:18;;;;;;;50.43;25.27;;;;;;;6.93;97.52;102007.52;4947991;58;1140966;-71
2022/03/15 08:33:24;;;;;;;35.83;17.60;;;;;;;6.95;97.86;101999.11;4947431;58;1140967;-71
2022/03/15 08:38:30;;;;;;;48.53;23.97;;;;;;;7.02;99.36;102000.60;4947152;58;1140846;-71
2022/03/15 08:43:36;;;;;;;47.67;22.23;;;;;;;7.00;100.00;101996.31;4947320;58;1141059;-71
2022/03/15 08:48:42;;;;;;;67.23;27.30;;;;;;;7.04;100.00;101988.67;4948192;58;1142919;-71
2022/03/15 08:53:48;;;;;;;48.83;24.87;;;;;;;7.09;100.00;101977.52;4947200;58;1143022;-71
2022/03/15 08:58:54;;;;;;;51.10;24.98;;;;;;;7.23;100.00;101983.54;4948779;58;1143008;-71
2022/03/15 09:04:02;;;;;;;64.66;30.54;;;;;;;7.33;100.00;101983.09;4942476;57;1143027;-73
2022/03/15 09:09:07;;;;;;;56.40;26.02;;;;;;;7.48;100.00;101970.26;4953259;58;1143095;-71
2022/03/15 09:14:13;;;;;;;57.17;27.37;;;;;;;7.63;100.00;101966.98;4967299;58;1143228;-72
2022/03/15 09:19:19;;;;;;;42.60;24.18;;;;;;;7.78;100.00;101966.33;4967476;58;1142978;-71
2022/03/15 09:24:25;;;;;;;48.87;26.80;;;;;;;7.87;100.00;101973.83;4967103;58;1142991;-71
2022/03/15 09:29:32;;;;;;;51.33;26.40;;;;;;;7.94;100.00;101971.80;4967252;58;1143115;-71
2022/03/15 09:34:39;;;;;;;48.63;26.50;;;;;;;8.01;100.00;101976.71;4967189;58;1143106;-71
2022/03/15 09:39:45;;;;;;;55.13;27.17;;;;;;;8.05;100.00;101969.54;4967131;58;1143076;-71
2022/03/15 09:44:52;;;;;;;37.37;18.30;;;;;;;8.12;100.00;101966.55;4967339;58;1143050;-71
2022/03/15 09:50:00;;;;;;;44.13;23.52;;;;;;;8.13;100.00;101966.94;4975239;58;1143300;-70
2022/03/15 09:55:07;;;;;;;37.83;21.77;;;;;;;8.15;100.00;101967.34;4976843;58;1143170;-70
2022/03/15 10:00:15;;;;;;;42.08;24.87;;;;;;;8.25;100.00;101967.34;4976682;58;1143136;-71
2022/03/15 10:05:20;;;;;;;40.17;22.85;;;;;;;8.29;100.00;101965.80;4965328;57;1143100;-71
2022/03/15 10:10:26;;;;;;;41.90;24.83;;;;;;;8.39;100.00;101964.98;4963854;57;1143062;-70
2022/03/15 10:15:33;;;;;;;47.17;25.62;;;;;;;8.54;100.00;101966.05;4975816;58;1143254;-71
2022/03/15 10:20:43;;;;;;;36.25;20.62;;;;;;;8.58;100.00;101966.28;4976378;58;1143160;-71
2022/03/15 10:25:58;;;;;;;32.70;18.63;;;;;;;8.59;100.00;101960.94;4976432;58;1143158;-71
2022/03/15 10:31:02;;;;;;;41.70;23.70;;;;;;;8.61;100.00;101963.51;4974863;58;1143207;-70
2022/03/15 10:36:17;;;;;;;48.63;26.02;;;;;;;8.59;100.00;101951.70;4976430;58;1143037;-70
2022/03/15 10:41:23;;;;;;;43.67;24.67;;;;;;;8.62;99.77;101942.34;4976476;58;1143149;-70
2022/03/15 10:46:29;;;;;;;39.20;23.47;;;;;;;8.67;99.60;101932.91;4976329;58;1141667;-70
2022/03/15 10:51:36;;;;;;;46.70;26.37;;;;;;;8.67;99.01;101933.77;5043191;56;1141338;-71
2022/03/15 10:56:42;;;;;;;50.57;28.90;;;;;;;8.67;99.11;101941.67;5060948;57;1141010;-70
2022/03/15 11:01:50;;;;;;;52.33;31.27;;;;;;;8.64;98.79;101942.27;5078821;56;1141178;-71
2022/03/15 11:06:56;;;;;;;36.13;19.67;;;;;;;8.60;98.76;101940.70;5103051;56;1140954;-71
2022/03/15 11:12:10;;;;;;;48.80;26.87;;;;;;;8.56;100.00;101929.43;5118999;55;1140930;-71
2022/03/15 11:17:27;;;;;;;45.07;26.03;;;;;;;8.54;99.75;101936.59;5076827;55;1143090;-71
2022/03/15 11:22:36;;;;;;;30.77;18.10;;;;;;;8.56;99.64;101932.06;4977165;56;1141033;-71
2022/03/15 11:27:46;;;;;;;33.93;18.93;;;;;;;8.61;99.77;101925.27;4977054;56;1140810;-71
2022/03/15 11:32:55;;;;;;;31.20;21.77;;;;;;;8.67;99.40;101918.40;4977312;56;1141038;-71
2022/03/15 11:38:05;;;;;;;40.05;22.95;;;;;;;8.75;99.44;101908.33;4976860;56;1140880;-71
2022/03/15 11:44:00;;;;;;;33.10;21.00;;;;;;;8.88;99.62;101907.27;4976688;56;1140801;-71
2022/03/15 11:49:27;;;;;;;39.77;18.80;;;;;;;9.06;99.00;101901.95;4975177;56;1140837;-71
2022/03/15 11:54:40;;;;;;;28.17;18.13;;;;;;;9.25;98.60;101901.05;4946165;57;1140999;-73
2022/03/15 11:59:50;;;;;;;35.08;21.07;;;;;;;9.33;97.54;101895.75;4956931;57;1140927;-71
2022/03/15 12:04:58;;;;;;;31.47;20.70;;;;;;;9.36;96.36;101890.33;5022327;57;1141130;-71
2022/03/15 12:10:09;;;;;;;33.13;21.30;;;;;;;9.36;95.71;101885.52;4937142;58;1218346;-71
2022/03/15 12:15:19;;;;;;;32.97;18.13;;;;;;;9.36;95.30;101870.98;4931941;59;1140948;-70
2022/03/15 12:20:25;;;;;;;29.23;19.20;;;;;;;9.33;94.99;101866.71;4799117;59;1140995;-70
2022/03/15 12:25:38;;;;;;;26.73;17.87;;;;;;;9.31;94.75;101866.43;4930004;58;1141006;-70
2022/03/15 12:30:50;;;;;;;29.47;20.30;;;;;;;9.31;94.24;101863.33;4866697;58;1141028;-71
2022/03/15 12:36:09;;;;;;;28.87;19.77;;;;;;;9.31;93.94;101856.73;4963157;57;1140911;-71
2022/03/15 12:41:18;;;;;;;26.13;17.47;;;;;;;9.37;94.02;101852.44;5019562;57;1140965;-71
2022/03/15 12:46:30;;;;;;;25.87;17.37;;;;;;;9.45;93.58;101849.41;5106940;56;1140987;-70
2022/03/15 12:51:44;;;;;;;29.17;17.67;;;;;;;9.48;93.25;101842.63;5059954;56;1141152;-71
2022/03/15 12:56:52;;;;;;;25.73;17.87;;;;;;;9.53;93.00;101836.19;5165749;55;1140986;-70
2022/03/15 13:02:00;;;;;;;28.38;17.80;;;;;;;9.58;92.67;101837.73;5165347;55;1140945;-71
2022/03/15 13:07:06;;;;;;;28.25;17.65;;;;;;;9.57;92.28;101834.71;5131826;56;1141016;-71
2022/03/15 13:12:16;;;;;;;52.48;22.32;;;;;;;9.63;91.95;101824.66;5116329;56;1141021;-70
2022/03/15 13:17:22;;;;;;;84.10;32.50;;;;;;;9.68;91.86;101823.10;5125604;56;1141143;-71
2022/03/15 13:22:30;;;;;;;29.20;16.17;;;;;;;9.74;91.54;101819.68;5129874;56;1141083;-70
2022/03/15 13:27:42;;;;;;;26.07;18.17;;;;;;;9.73;90.91;101813.16;5131728;55;1140835;-70
2022/03/15 13:32:54;;;;;;;28.87;16.27;;;;;;;9.85;91.17;101812.02;5135611;55;1140938;-71
2022/03/15 13:38:00;;;;;;;29.00;16.93;;;;;;;9.94;90.36;101808.48;5219094;55;1140839;-70
2022/03/15 13:43:10;;;;;;;22.25;14.83;;;;;;;10.05;89.61;101803.02;5214896;55;1147662;-72
2022/03/15 13:48:16;;;;;;;35.20;15.98;;;;;;;10.16;89.11;101796.66;5148962;55;1142929;-70
2022/03/15 13:53:22;;;;;;;32.25;17.73;;;;;;;10.18;88.35;101793.50;5126384;56;1143084;-69
2022/03/15 13:58:29;;;;;;;24.57;13.90;;;;;;;10.21;87.61;101793.34;5095810;57;1142896;-70
2022/03/15 14:03:36;;;;;;;33.10;17.07;;;;;;;10.20;87.14;101777.09;5017042;57;1143189;-70
2022/03/15 14:08:50;;;;;;;52.67;26.50;;;;;;;10.20;86.96;101758.58;5033542;57;1143154;-71
2022/03/15 14:14:08;;;;;;;22.10;13.97;;;;;;;10.25;86.90;101760.94;4951364;57;1143470;-70
2022/03/15 14:19:18;;;;;;;31.97;13.08;;;;;;;10.23;86.85;101762.34;4893745;57;1143114;-72
2022/03/15 14:24:27;;;;;;;25.55;11.70;;;;;;;10.28;86.81;101750.67;4936087;57;1143267;-70
2022/03/15 14:29:36;;;;;;;21.33;12.43;;;;;;;10.40;85.44;101744.20;4904623;58;1143123;-70
2022/03/15 14:34:52;;;;;;;25.80;14.00;;;;;;;10.40;85.44;101744.20;4992378;57;1143073;-70
2022/03/15 14:40:12;;;;;;;22.93;12.03;;;;;;;10.49;85.96;101734.44;5039745;57;1143112;-71
2022/03/15 14:45:19;;;;;;;16.80;10.40;;;;;;;10.73;85.78;101720.23;5039848;57;1143049;-70
2022/03/15 14:50:26;;;;;;;19.48;9.65;;;;;;;10.91;83.84;101715.64;5039706;57;1143299;-70
2022/03/15 14:55:32;;;;;;;32.80;16.90;;;;;;;10.94;81.83;101708.85;5039854;57;1141019;-70
2022/03/15 15:00:40;;;;;;;114.20;47.63;;;;;;;10.92;81.60;101702.33;5148632;56;1143127;-70
2022/03/15 15:05:46;;;;;;;21.30;10.87;;;;;;;10.86;81.12;101699.18;5127480;56;1145246;-70
2022/03/15 15:10:51;;;;;;;21.10;14.33;;;;;;;10.78;81.01;101688.22;5109249;56;1143072;-70
2022/03/15 15:15:57;;;;;;;30.43;19.07;;;;;;;10.76;81.38;101685.66;5073649;56;1143297;-70
2022/03/15 15:21:04;;;;;;;52.80;19.60;;;;;;;10.77;81.47;101686.52;5073472;56;1143084;-71
2022/03/15 15:26:10;;;;;;;205.30;131.30;;;;;;;10.74;81.47;101684.89;5026141;56;1143262;-71
2022/03/15 15:31:16;;;;;;;153.00;81.30;;;;;;;10.74;81.71;101682.72;5003364;56;1147531;-71
2022/03/15 15:36:22;;;;;;;70.28;35.75;;;;;;;10.72;81.63;101679.31;4984436;56;1145145;-70
2022/03/15 15:41:31;;;;;;;36.13;14.53;;;;;;;10.75;81.71;101676.02;4938569;57;1143052;-70
2022/03/15 15:46:36;;;;;;;25.63;14.73;;;;;;;10.82;81.92;101672.55;4974313;57;1143655;-70
2022/03/15 15:51:42;;;;;;;47.87;24.60;;;;;;;10.83;81.73;101669.80;4937634;57;1143322;-71
2022/03/15 15:56:50;;;;;;;88.95;40.08;;;;;;;10.81;81.57;101661.58;4937671;57;1143059;-71
2022/03/15 16:01:56;;;;;;;96.63;38.33;;;;;;;10.71;81.38;101655.97;4956740;56;1143045;-72
2022/03/15 16:07:02;;;;;;;118.37;46.20;;;;;;;10.67;81.83;101654.47;4965564;57;1143020;-70
2022/03/15 16:12:09;;;;;;;170.47;42.97;;;;;;;10.63;81.83;101648.13;5049612;57;1145155;-70
2022/03/15 16:17:14;;;;;;;90.63;29.83;;;;;;;10.52;81.61;101644.33;5047752;56;1154779;-71
2022/03/15 16:22:20;;;;;;;122.87;42.03;;;;;;;10.46;81.50;101640.72;5048032;57;1143194;-70
2022/03/15 16:27:25;;;;;;;160.82;56.58;;;;;;;10.43;81.46;101645.33;5047707;57;1145287;-70
2022/03/15 16:32:31;;;;;;;105.20;45.17;;;;;;;10.39;81.51;101644.65;5047698;57;1145403;-70
2022/03/15 16:37:37;;;;;;;142.50;58.20;;;;;;;10.35;81.40;101650.23;5047853;57;1145375;-71
2022/03/15 16:42:44;;;;;;;255.70;97.10;;;;;;;10.20;81.22;101642.25;5047592;57;1145267;-70
2022/03/15 16:47:50;;;;;;;267.20;98.13;;;;;;;10.05;81.18;101637.82;5026572;57;1145233;-71
2022/03/15 16:52:56;;;;;;;111.77;31.12;;;;;;;9.91;81.08;101631.16;5048378;57;1145616;-71
2022/03/15 16:58:02;;;;;;;94.73;22.40;;;;;;;9.75;80.99;101625.89;5048484;57;1143321;-70
2022/03/15 17:03:08;;;;;;;69.13;18.77;;;;;;;9.60;80.73;101616.66;5007184;56;1140817;-70
2022/03/15 17:08:14;;;;;;;50.60;20.03;;;;;;;9.48;80.94;101612.41;4998992;57;1146604;-71
2022/03/15 17:13:23;;;;;;;53.55;19.00;;;;;;;9.39;81.11;101620.86;5000656;58;1140840;-71
2022/03/15 17:18:28;;;;;;;153.60;59.80;;;;;;;9.30;81.31;101612.60;5000281;57;1150711;-70
2022/03/15 17:23:37;;;;;;;172.80;83.40;;;;;;;9.27;81.97;101608.80;5000246;58;1142953;-70
2022/03/15 17:28:45;;;;;;;128.57;57.40;;;;;;;9.25;82.06;101598.80;5000374;57;1143125;-71
2022/03/15 17:33:51;;;;;;;70.00;28.40;;;;;;;9.02;81.48;101589.00;5000343;57;1142999;-70
2022/03/15 17:38:59;;;;;;;65.10;30.50;;;;;;;8.91;81.64;101593.16;5000602;58;1140809;-70
2022/03/15 17:44:04;;;;;;;51.23;28.90;;;;;;;8.83;81.67;101591.41;5000247;57;1140832;-70
2022/03/15 17:49:12;;;;;;;81.22;37.84;;;;;;;8.78;82.44;101592.97;5040051;56;1140865;-71
2022/03/15 17:54:29;;;;;;;55.33;25.85;;;;;;;8.82;82.84;101581.33;5091239;56;1140772;-70
2022/03/15 17:59:30;;;;;;;70.80;33.33;;;;;;;8.73;82.52;101583.12;5082149;56;1141109;-70
2022/03/15 18:04:36;;;;;;;101.03;40.90;;;;;;;8.69;82.82;101577.17;5099570;57;1140740;-70
2022/03/15 18:09:42;;;;;;;116.40;58.57;;;;;;;8.65;82.85;101566.86;5105714;57;1140734;-71
2022/03/15 18:14:52;;;;;;;83.37;38.20;;;;;;;8.62;83.07;101564.38;5105667;57;1140806;-70
2022/03/15 18:19:56;;;;;;;69.27;31.70;;;;;;;8.43;82.41;101561.38;5105654;57;1141027;-71
2022/03/15 18:25:01;;;;;;;51.53;28.13;;;;;;;8.33;83.28;101565.44;5114778;56;1140834;-71
2022/03/15 18:30:12;;;;;;;50.57;26.13;;;;;;;8.37;83.71;101560.87;5130641;56;1140739;-71
2022/03/15 18:35:16;;;;;;;48.35;25.43;;;;;;;8.45;83.99;101571.38;5125327;56;1140808;-71
2022/03/15 18:40:45;;;;;;;62.20;26.33;;;;;;;8.41;83.54;101586.97;5105817;57;1140998;-70
2022/03/15 18:45:32;;;;;;;49.63;25.57;;;;;;;8.34;83.83;101591.33;5006830;57;1140835;-71
2022/03/15 18:50:40;;;;;;;49.40;23.00;;;;;;;8.36;83.89;101593.43;5054776;56;1138693;-71
2022/03/15 18:55:47;;;;;;;132.87;61.73;;;;;;;8.25;83.16;101588.65;5067813;56;1138875;-70
2022/03/15 19:01:01;;;;;;;154.63;67.87;;;;;;;8.02;83.01;101576.65;5107003;55;1140906;-71
2022/03/15 19:06:09;;;;;;;107.47;44.60;;;;;;;7.91;83.95;101579.44;5134808;55;1152717;-71
2022/03/15 19:11:17;;;;;;;103.53;48.30;;;;;;;7.89;84.40;101568.97;5173673;55;1142982;-71
2022/03/15 19:16:35;;;;;;;78.90;35.57;;;;;;;7.89;84.56;101566.34;5109422;56;1142981;-71
2022/03/15 19:21:32;;;;;;;82.03;39.07;;;;;;;7.79;84.66;101562.47;5164184;55;1141021;-70
2022/03/15 19:26:40;;;;;;;61.93;29.93;;;;;;;7.74;85.58;101553.93;5166686;56;1138996;-70
2022/03/15 19:31:47;;;;;;;55.13;27.10;;;;;;;7.77;86.15;101560.38;5117563;56;1141136;-71
2022/03/15 19:36:53;;;;;;;53.83;25.87;;;;;;;7.80;85.77;101563.29;5153306;55;1141077;-71
2022/03/15 19:42:04;;;;;;;54.10;28.53;;;;;;;7.79;86.03;101543.18;5127554;56;1141291;-70
2022/03/15 19:47:06;;;;;;;52.13;27.73;;;;;;;7.82;86.27;101534.64;5153733;55;1140926;-71
2022/03/15 19:52:14;;;;;;;47.80;26.77;;;;;;;7.83;86.75;101544.70;5172970;55;1140815;-72
2022/03/15 19:57:28;;;;;;;54.90;27.32;;;;;;;7.79;86.50;101554.57;5106604;55;1141127;-71
2022/03/15 20:02:30;;;;;;;54.50;27.15;;;;;;;7.63;86.11;101547.88;5164869;55;1138814;-70
2022/03/15 20:07:37;;;;;;;47.67;25.33;;;;;;;7.57;86.42;101534.16;5176630;55;1141000;-71
2022/03/15 20:12:44;;;;;;;49.53;27.67;;;;;;;7.57;86.91;101526.26;5160801;55;1141176;-71
2022/03/15 20:17:50;;;;;;;106.23;51.93;;;;;;;7.57;87.36;101527.58;5190779;55;1140915;-70
2022/03/15 20:23:05;;;;;;;213.57;112.63;;;;;;;7.64;88.22;101541.66;5130954;55;1143034;-70
2022/03/15 20:28:04;;;;;;;99.17;50.80;;;;;;;7.71;88.16;101543.08;5128902;56;1145081;-71
2022/03/15 20:33:11;;;;;;;91.40;52.55;;;;;;;7.80;87.98;101543.54;5194941;55;1138815;-70
2022/03/15 20:38:16;;;;;;;291.77;126.40;;;;;;;7.74;87.31;101544.72;5184948;55;1138887;-70
2022/03/15 20:48:47;;;;;;;102.12;48.20;;;;;;;7.67;86.98;101530.98;5218309;55;1143243;-71
2022/03/15 20:53:53;;;;;;;102.60;53.50;;;;;;;7.59;86.70;101521.77;5186208;55;1142968;-71
2022/03/15 20:59:01;;;;;;;106.63;57.07;;;;;;;7.55;87.40;101528.11;5130669;55;1143002;-70
2022/03/15 21:04:09;;;;;;;100.30;51.57;;;;;;;7.62;88.09;101529.06;5217468;55;1142957;-70
2022/03/15 21:09:16;;;;;;;128.80;62.03;;;;;;;7.67;88.09;101531.45;5216625;55;1148985;-72
2022/03/15 21:14:28;;;;;;;133.67;65.90;;;;;;;7.69;88.12;101530.91;5216170;55;1142895;-71
2022/03/15 21:19:32;;;;;;;129.20;62.93;;;;;;;7.63;87.62;101522.88;5215518;55;1140918;-71
2022/03/15 21:24:38;;;;;;;122.23;58.87;;;;;;;7.54;87.42;101525.09;5216458;55;1140753;-70
2022/03/15 21:29:57;;;;;;;87.60;46.33;;;;;;;7.55;87.46;101525.02;5216839;55;1142867;-72
2022/03/15 21:35:02;;;;;;;91.50;46.70;;;;;;;7.61;87.67;101526.50;5217342;55;1140898;-71
2022/03/15 21:40:10;;;;;;;64.10;35.40;;;;;;;7.66;87.74;101517.89;5214976;55;1254191;-70
2022/03/15 21:45:17;;;;;;;64.00;33.73;;;;;;;7.54;86.89;101514.55;5195961;55;1205891;-71
2022/03/15 21:50:23;;;;;;;62.03;35.75;;;;;;;7.35;87.18;101508.87;5216714;55;1138878;-69
2022/03/15 21:55:29;;;;;;;81.80;43.98;;;;;;;7.22;87.44;101513.48;5217182;55;1138951;-71
2022/03/15 22:00:35;;;;;;;69.13;39.30;;;;;;;7.20;88.40;101504.80;5171450;55;1138720;-70
2022/03/15 22:05:43;;;;;;;66.00;34.35;;;;;;;7.26;88.40;101504.06;5114173;56;1140766;-70
2022/03/15 22:10:51;;;;;;;72.40;38.63;;;;;;;7.32;88.46;101490.63;5051500;56;1140883;-71
2022/03/15 22:15:56;;;;;;;85.77;45.03;;;;;;;7.41;88.45;101492.79;5053695;55;1140941;-71
2022/03/15 22:21:03;;;;;;;65.83;34.17;;;;;;;7.36;88.03;101476.36;5062730;56;1140800;-71
2022/03/15 22:26:18;;;;;;;61.13;33.67;;;;;;;7.21;88.00;101472.31;5063395;56;1139006;-71
2022/03/15 23:19:14;;;;;;;88.40;45.83;;;;;;;6.96;89.75;101443.25;5051960;56;1140984;-71
2022/03/15 23:24:21;;;;;;;95.70;47.58;;;;;;;6.96;89.60;101450.28;5057807;56;1140916;-70
2022/03/15 23:29:26;;;;;;;90.25;47.35;;;;;;;6.98;89.95;101449.30;5081067;57;1141062;-71
2022/03/15 23:34:32;;;;;;;76.35;39.27;;;;;;;6.95;89.67;101446.80;5092338;55;1139028;-71
2022/03/15 23:39:38;;;;;;;99.07;45.53;;;;;;;6.84;89.50;101447.78;5126549;55;1138801;-70
2022/03/15 23:44:46;;;;;;;116.93;50.93;;;;;;;6.67;89.46;101443.31;5124572;55;1138802;-71
2022/03/15 23:49:51;;;;;;;86.90;44.10;;;;;;;6.61;89.40;101446.67;5124184;55;1140976;-70